sensor_id;sensor_type;location;lat;lon;timestamp;pressure;altitude;pressure_sealevel;temperature;humidity
55604;BME280;41468;48.838;9.330;2023-07-30T00:00:01;97843.13;;;19.00;100.00
55604;BME280;41468;48.838;9.330;2023-07-30T00:02:27;97849.78;;;19.03;100.00
55604;BME280;41468;48.838;9.330;2023-07-30T00:04:54;97862.16;;;18.98;100.00
55604;BME280;41468;48.838;9.330;2023-07-30T00:07:21;97867.59;;;19.02;100.00
55604;BME280;41468;48.838;9.330;2023-07-30T00:46:04;97900.41;;;18.50;100.00
55604;BME280;41468;48.838;9.330;2023-07-30T00:48:38;97900.59;;;18.43;100.00
55604;BME280;41468;48.838;9.330;2023-07-30T00:51:13;97909.56;;;18.47;100.00
55604;BME280;41468;48.838;9.330;2023-07-30T00:53:46;97896.25;;;18.42;100.00
55604;BME280;41468;48.838;9.330;2023-07-30T00:56:19;97885.19;;;18.42;100.00
55604;BME280;41468;48.838;9.330;2023-07-30T00:58:52;97890.38;;;18.40;100.00
55604;BME280;41468;48.838;9.330;2023-07-30T01:01:25;97891.25;;;18.37;100.00
55604;BME280;41468;48.838;9.330;2023-07-30T01:03:58;97898.34;;;18.38;100.00
55604;BME280;41468;48.838;9.330;2023-07-30T01:06:31;97901.44;;;18.40;100.00
55604;BME280;41468;48.838;9.330;2023-07-30T01:09:04;97909.03;;;18.36;100.00
55604;BME280;41468;48.838;9.330;2023-07-30T01:11:38;97900.75;;;18.36;100.00
55604;BME280;41468;48.838;9.330;2023-07-30T01:14:12;97898.66;;;18.40;100.00
55604;BME280;41468;48.838;9.330;2023-07-30T01:16:47;97906.88;;;18.27;100.00
55604;BME280;41468;48.838;9.330;2023-07-30T01:19:20;97911.19;;;18.28;100.00
55604;BME280;41468;48.838;9.330;2023-07-30T01:21:52;97900.38;;;18.18;100.00
55604;BME280;41468;48.838;9.330;2023-07-30T01:24:25;97907.38;;;18.22;100.00
55604;BME280;41468;48.838;9.330;2023-07-30T01:27:05;97914.91;;;18.22;100.00
55604;BME280;41468;48.838;9.330;2023-07-30T01:32:24;97920.19;;;18.32;100.00
55604;BME280;41468;48.838;9.330;2023-07-30T01:34:57;97916.72;;;18.28;100.00
55604;BME280;41468;48.838;9.330;2023-07-30T01:37:25;97918.00;;;18.24;100.00
55604;BME280;41468;48.838;9.330;2023-07-30T01:39:52;97924.91;;;18.32;100.00
55604;BME280;41468;48.838;9.330;2023-07-30T01:42:19;97920.09;;;18.36;100.00
55604;BME280;41468;48.838;9.330;2023-07-30T01:44:46;97918.09;;;18.37;100.00
55604;BME280;41468;48.838;9.330;2023-07-30T01:47:13;97926.66;;;18.42;100.00
55604;BME280;41468;48.838;9.330;2023-07-30T01:49:40;97932.19;;;18.42;100.00
55604;BME280;41468;48.838;9.330;2023-07-30T01:52:06;97928.91;;;18.47;100.00
55604;BME280;41468;48.838;9.330;2023-07-30T01:54:33;97935.47;;;18.37;100.00
55604;BME280;41468;48.838;9.330;2023-07-30T01:57:00;97940.22;;;18.37;100.00
55604;BME280;41468;48.838;9.330;2023-07-30T01:59:27;97950.09;;;18.38;100.00
55604;BME280;41468;48.838;9.330;2023-07-30T02:01:54;97941.69;;;18.41;100.00
55604;BME280;41468;48.838;9.330;2023-07-30T02:04:21;97937.03;;;18.38;100.00
55604;BME280;41468;48.838;9.330;2023-07-30T02:06:48;97934.28;;;18.38;100.00
55604;BME280;41468;48.838;9.330;2023-07-30T02:09:15;97926.13;;;18.31;100.00
55604;BME280;41468;48.838;9.330;2023-07-30T02:11:42;97930.16;;;18.26;100.00
55604;BME280;41468;48.838;9.330;2023-07-30T02:14:09;97926.13;;;18.31;100.00
55604;BME280;41468;48.838;9.330;2023-07-30T02:16:36;97929.88;;;18.41;100.00
55604;BME280;41468;48.838;9.330;2023-07-30T02:19:04;97931.06;;;18.40;100.00
55604;BME280;41468;48.838;9.330;2023-07-30T02:21:31;97928.66;;;18.42;100.00
55604;BME280;41468;48.838;9.330;2023-07-30T02:23:59;97923.38;;;18.47;100.00
55604;BME280;41468;48.838;9.330;2023-07-30T02:26:26;97917.88;;;18.47;100.00
55604;BME280;41468;48.838;9.330;2023-07-30T02:28:53;97911.97;;;18.45;100.00
55604;BME280;41468;48.838;9.330;2023-07-30T02:31:20;97920.97;;;18.49;100.00
55604;BME280;41468;48.838;9.330;2023-07-30T02:33:46;97921.41;;;18.48;100.00
55604;BME280;41468;48.838;9.330;2023-07-30T02:36:13;97924.09;;;18.51;100.00
55604;BME280;41468;48.838;9.330;2023-07-30T02:38:40;97922.88;;;18.52;100.00
55604;BME280;41468;48.838;9.330;2023-07-30T02:41:07;97931.94;;;18.53;100.00
55604;BME280;41468;48.838;9.330;2023-07-30T02:43:33;97930.81;;;18.50;100.00
55604;BME280;41468;48.838;9.330;2023-07-30T02:46:00;97928.16;;;18.47;100.00
55604;BME280;41468;48.838;9.330;2023-07-30T02:48:27;97932.66;;;18.57;100.00
55604;BME280;41468;48.838;9.330;2023-07-30T02:50:54;97937.31;;;18.60;100.00
55604;BME280;41468;48.838;9.330;2023-07-30T02:53:20;97943.44;;;18.51;100.00
55604;BME280;41468;48.838;9.330;2023-07-30T02:55:57;97934.97;;;18.59;100.00
55604;BME280;41468;48.838;9.330;2023-07-30T02:58:24;97941.38;;;18.55;100.00
55604;BME280;41468;48.838;9.330;2023-07-30T03:00:51;97940.25;;;18.53;100.00
55604;BME280;41468;48.838;9.330;2023-07-30T03:03:18;97933.25;;;18.48;100.00
55604;BME280;41468;48.838;9.330;2023-07-30T03:05:45;97934.72;;;18.53;100.00
55604;BME280;41468;48.838;9.330;2023-07-30T03:08:12;97933.97;;;18.69;100.00
55604;BME280;41468;48.838;9.330;2023-07-30T03:10:38;97933.59;;;18.67;100.00
55604;BME280;41468;48.838;9.330;2023-07-30T03:13:05;97940.00;;;18.64;100.00
55604;BME280;41468;48.838;9.330;2023-07-30T03:15:36;97938.97;;;18.58;100.00
55604;BME280;41468;48.838;9.330;2023-07-30T03:18:03;97944.13;;;18.55;100.00
55604;BME280;41468;48.838;9.330;2023-07-30T03:20:30;97934.13;;;18.62;100.00
55604;BME280;41468;48.838;9.330;2023-07-30T03:22:57;97933.44;;;18.58;100.00
55604;BME280;41468;48.838;9.330;2023-07-30T03:25:23;97934.91;;;18.62;100.00
55604;BME280;41468;48.838;9.330;2023-07-30T03:27:50;97936.81;;;18.65;100.00
55604;BME280;41468;48.838;9.330;2023-07-30T03:30:17;97939.63;;;18.62;100.00
55604;BME280;41468;48.838;9.330;2023-07-30T03:32:44;97939.13;;;18.67;100.00
55604;BME280;41468;48.838;9.330;2023-07-30T03:35:11;97944.75;;;18.63;100.00
55604;BME280;41468;48.838;9.330;2023-07-30T03:37:38;97946.75;;;18.63;100.00
55604;BME280;41468;48.838;9.330;2023-07-30T03:40:05;97948.28;;;18.64;100.00
55604;BME280;41468;48.838;9.330;2023-07-30T03:42:32;97940.69;;;18.68;100.00
55604;BME280;41468;48.838;9.330;2023-07-30T03:44:59;97945.09;;;18.65;100.00
55604;BME280;41468;48.838;9.330;2023-07-30T03:47:26;97948.38;;;18.60;100.00
55604;BME280;41468;48.838;9.330;2023-07-30T03:49:52;97952.78;;;18.58;100.00
55604;BME280;41468;48.838;9.330;2023-07-30T03:52:19;97954.78;;;18.57;100.00
55604;BME280;41468;48.838;9.330;2023-07-30T03:54:57;97952.06;;;18.53;100.00
55604;BME280;41468;48.838;9.330;2023-07-30T03:57:24;97961.94;;;18.54;100.00
55604;BME280;41468;48.838;9.330;2023-07-30T03:59:50;97962.88;;;18.48;100.00
55604;BME280;41468;48.838;9.330;2023-07-30T04:02:17;97966.25;;;18.55;100.00
55604;BME280;41468;48.838;9.330;2023-07-30T04:04:44;97969.72;;;18.60;100.00
55604;BME280;41468;48.838;9.330;2023-07-30T04:07:12;97961.00;;;18.61;100.00
55604;BME280;41468;48.838;9.330;2023-07-30T04:09:39;97974.03;;;18.61;100.00
55604;BME280;41468;48.838;9.330;2023-07-30T04:12:06;97974.75;;;18.65;100.00
55604;BME280;41468;48.838;9.330;2023-07-30T04:14:33;97972.75;;;18.65;100.00
55604;BME280;41468;48.838;9.330;2023-07-30T04:17:00;97967.78;;;18.76;100.00
55604;BME280;41468;48.838;9.330;2023-07-30T04:19:31;97976.44;;;18.79;100.00
55604;BME280;41468;48.838;9.330;2023-07-30T04:21:58;97976.00;;;18.80;100.00
55604;BME280;41468;48.838;9.330;2023-07-30T04:24:25;97977.56;;;18.81;100.00
55604;BME280;41468;48.838;9.330;2023-07-30T04:26:53;97986.81;;;18.91;100.00
55604;BME280;41468;48.838;9.330;2023-07-30T04:29:19;97980.16;;;18.88;100.00
55604;BME280;41468;48.838;9.330;2023-07-30T04:31:46;97988.88;;;18.87;100.00
55604;BME280;41468;48.838;9.330;2023-07-30T04:34:13;97993.03;;;18.79;100.00
55604;BME280;41468;48.838;9.330;2023-07-30T04:36:40;97998.56;;;18.79;100.00
55604;BME280;41468;48.838;9.330;2023-07-30T04:39:07;97995.03;;;18.78;100.00
55604;BME280;41468;48.838;9.330;2023-07-30T04:41:33;97992.69;;;18.76;100.00
55604;BME280;41468;48.838;9.330;2023-07-30T04:44:03;97995.03;;;18.78;100.00
55604;BME280;41468;48.838;9.330;2023-07-30T04:46:29;97999.25;;;18.83;100.00
55604;BME280;41468;48.838;9.330;2023-07-30T04:48:57;97999.34;;;18.79;100.00
55604;BME280;41468;48.838;9.330;2023-07-30T04:51:24;97994.22;;;18.77;100.00
55604;BME280;41468;48.838;9.330;2023-07-30T04:53:50;97993.91;;;18.75;100.00
55604;BME280;41468;48.838;9.330;2023-07-30T04:56:17;97992.75;;;18.73;100.00
55604;BME280;41468;48.838;9.330;2023-07-30T04:58:44;98002.53;;;18.77;100.00
55604;BME280;41468;48.838;9.330;2023-07-30T05:01:11;97999.34;;;18.79;100.00
55604;BME280;41468;48.838;9.330;2023-07-30T05:03:38;98000.19;;;18.76;100.00
55604;BME280;41468;48.838;9.330;2023-07-30T05:06:05;98000.19;;;18.76;100.00
55604;BME280;41468;48.838;9.330;2023-07-30T05:08:31;98005.53;;;18.83;100.00
55604;BME280;41468;48.838;9.330;2023-07-30T05:10:58;98004.09;;;18.79;100.00
55604;BME280;41468;48.838;9.330;2023-07-30T05:13:25;98011.94;;;18.80;100.00
55604;BME280;41468;48.838;9.330;2023-07-30T05:15:51;98013.16;;;18.79;100.00
55604;BME280;41468;48.838;9.330;2023-07-30T05:18:18;98013.84;;;18.83;100.00
55604;BME280;41468;48.838;9.330;2023-07-30T05:20:46;98015.25;;;18.91;100.00
55604;BME280;41468;48.838;9.330;2023-07-30T05:23:24;98025.25;;;18.85;100.00
55604;BME280;41468;48.838;9.330;2023-07-30T05:25:51;98023.00;;;18.80;100.00
55604;BME280;41468;48.838;9.330;2023-07-30T05:28:17;98021.81;;;18.81;100.00
55604;BME280;41468;48.838;9.330;2023-07-30T05:30:44;98025.44;;;18.78;100.00
55604;BME280;41468;48.838;9.330;2023-07-30T05:33:11;98026.56;;;18.81;100.00
55604;BME280;41468;48.838;9.330;2023-07-30T05:35:38;98030.13;;;18.81;100.00
55604;BME280;41468;48.838;9.330;2023-07-30T05:38:05;98032.94;;;18.77;100.00
55604;BME280;41468;48.838;9.330;2023-07-30T05:40:32;98032.63;;;18.75;100.00
55604;BME280;41468;48.838;9.330;2023-07-30T05:42:58;98027.69;;;18.83;100.00
55604;BME280;41468;48.838;9.330;2023-07-30T05:45:27;98025.34;;;18.82;100.00
55604;BME280;41468;48.838;9.330;2023-07-30T05:47:54;98031.66;;;18.82;100.00
55604;BME280;41468;48.838;9.330;2023-07-30T05:50:21;98029.34;;;18.81;100.00
55604;BME280;41468;48.838;9.330;2023-07-30T05:52:47;98023.81;;;18.81;100.00
55604;BME280;41468;48.838;9.330;2023-07-30T05:55:14;98019.81;;;18.82;100.00
55604;BME280;41468;48.838;9.330;2023-07-30T05:57:41;98028.63;;;18.76;100.00
55604;BME280;41468;48.838;9.330;2023-07-30T06:00:08;98025.78;;;18.80;100.00
55604;BME280;41468;48.838;9.330;2023-07-30T06:02:35;98026.13;;;18.82;100.00
55604;BME280;41468;48.838;9.330;2023-07-30T06:05:02;98022.50;;;18.85;100.00
55604;BME280;41468;48.838;9.330;2023-07-30T06:07:29;98017.47;;;18.80;100.00
55604;BME280;41468;48.838;9.330;2023-07-30T06:09:55;98021.31;;;18.86;100.00
55604;BME280;41468;48.838;9.330;2023-07-30T06:12:22;98026.75;;;18.90;100.00
55604;BME280;41468;48.838;9.330;2023-07-30T06:14:49;98025.78;;;18.96;100.00
55604;BME280;41468;48.838;9.330;2023-07-30T06:17:16;98043.00;;;19.04;100.00
55604;BME280;41468;48.838;9.330;2023-07-30T06:19:42;98032.56;;;19.12;100.00
55604;BME280;41468;48.838;9.330;2023-07-30T06:22:09;98030.66;;;19.25;100.00
55604;BME280;41468;48.838;9.330;2023-07-30T06:24:36;98039.31;;;19.27;100.00
55604;BME280;41468;48.838;9.330;2023-07-30T06:27:03;98031.94;;;19.37;100.00
55604;BME280;41468;48.838;9.330;2023-07-30T06:29:30;98026.13;;;19.48;100.00
55604;BME280;41468;48.838;9.330;2023-07-30T06:31:57;98030.13;;;19.47;100.00
55604;BME280;41468;48.838;9.330;2023-07-30T06:34:23;98038.00;;;19.48;100.00
55604;BME280;41468;48.838;9.330;2023-07-30T06:36:50;98039.31;;;19.43;100.00
55604;BME280;41468;48.838;9.330;2023-07-30T06:39:17;98041.97;;;19.47;100.00
55604;BME280;41468;48.838;9.330;2023-07-30T06:41:44;98036.16;;;19.58;100.00
55604;BME280;41468;48.838;9.330;2023-07-30T06:44:10;98033.75;;;19.60;100.00
55604;BME280;41468;48.838;9.330;2023-07-30T06:46:37;98034.97;;;19.59;100.00
55604;BME280;41468;48.838;9.330;2023-07-30T06:49:04;98041.53;;;19.65;100.00
55604;BME280;41468;48.838;9.330;2023-07-30T06:51:31;98054.72;;;19.77;100.00
55604;BME280;41468;48.838;9.330;2023-07-30T06:53:58;98074.63;;;20.01;100.00
55604;BME280;41468;48.838;9.330;2023-07-30T06:56:24;98070.13;;;20.37;100.00
55604;BME280;41468;48.838;9.330;2023-07-30T06:58:51;98069.78;;;20.35;100.00
55604;BME280;41468;48.838;9.330;2023-07-30T07:01:18;98077.56;;;20.40;100.00
55604;BME280;41468;48.838;9.330;2023-07-30T07:03:45;98071.25;;;20.39;100.00
55604;BME280;41468;48.838;9.330;2023-07-30T07:06:17;98071.13;;;20.43;100.00
55604;BME280;41468;48.838;9.330;2023-07-30T07:08:44;98072.09;;;20.36;100.00
55604;BME280;41468;48.838;9.330;2023-07-30T07:11:11;98075.63;;;20.24;100.00
55604;BME280;41468;48.838;9.330;2023-07-30T07:13:38;98080.06;;;20.21;100.00
55604;BME280;41468;48.838;9.330;2023-07-30T07:16:05;98072.66;;;20.02;100.00
55604;BME280;41468;48.838;9.330;2023-07-30T07:18:31;98075.47;;;19.85;100.00
55604;BME280;41468;48.838;9.330;2023-07-30T07:20:58;98075.13;;;19.83;100.00
55604;BME280;41468;48.838;9.330;2023-07-30T07:23:25;98075.75;;;19.75;100.00
55604;BME280;41468;48.838;9.330;2023-07-30T07:25:52;98071.94;;;19.69;100.00
55604;BME280;41468;48.838;9.330;2023-07-30T07:28:29;98071.59;;;19.67;100.00
55604;BME280;41468;48.838;9.330;2023-07-30T07:30:56;98074.63;;;19.56;100.00
55604;BME280;41468;48.838;9.330;2023-07-30T07:33:23;98078.75;;;19.64;100.00
55604;BME280;41468;48.838;9.330;2023-07-30T07:35:50;98086.47;;;19.73;100.00
55604;BME280;41468;48.838;9.330;2023-07-30T07:38:16;98090.63;;;19.81;100.00
55604;BME280;41468;48.838;9.330;2023-07-30T07:40:43;98082.41;;;19.77;100.00
55604;BME280;41468;48.838;9.330;2023-07-30T07:43:10;98086.38;;;19.76;100.00
55604;BME280;41468;48.838;9.330;2023-07-30T07:45:37;98087.59;;;19.75;100.00
55604;BME280;41468;48.838;9.330;2023-07-30T07:48:04;98088.47;;;19.72;100.00
55604;BME280;41468;48.838;9.330;2023-07-30T07:50:31;98098.75;;;19.72;100.00
55604;BME280;41468;48.838;9.330;2023-07-30T07:52:57;98104.28;;;19.72;100.00
55604;BME280;41468;48.838;9.330;2023-07-30T07:55:24;98096.09;;;19.68;100.00
55604;BME280;41468;48.838;9.330;2023-07-30T07:57:51;98109.28;;;19.44;100.00
55604;BME280;41468;48.838;9.330;2023-07-30T08:00:18;98120.63;;;19.33;100.00
55604;BME280;41468;48.838;9.330;2023-07-30T08:02:46;98114.41;;;19.29;100.00
55604;BME280;41468;48.838;9.330;2023-07-30T08:05:16;98120.78;;;19.26;100.00
55604;BME280;41468;48.838;9.330;2023-07-30T08:07:45;98121.66;;;19.23;100.00
55604;BME280;41468;48.838;9.330;2023-07-30T08:10:23;98129.25;;;19.19;100.00
55604;BME280;41468;48.838;9.330;2023-07-30T08:12:50;98123.28;;;19.20;100.00
55604;BME280;41468;48.838;9.330;2023-07-30T08:15:17;98117.50;;;19.31;100.00
55604;BME280;41468;48.838;9.330;2023-07-30T08:17:44;98114.72;;;19.31;100.00
55604;BME280;41468;48.838;9.330;2023-07-30T08:20:11;98121.34;;;19.37;100.00
55604;BME280;41468;48.838;9.330;2023-07-30T08:22:38;98119.69;;;19.40;100.00
55604;BME280;41468;48.838;9.330;2023-07-30T08:25:05;98121.94;;;19.45;100.00
55604;BME280;41468;48.838;9.330;2023-07-30T08:27:32;98123.22;;;19.40;100.00
55604;BME280;41468;48.838;9.330;2023-07-30T08:29:59;98118.56;;;19.54;100.00
55604;BME280;41468;48.838;9.330;2023-07-30T08:32:25;98119.84;;;19.65;100.00
55604;BME280;41468;48.838;9.330;2023-07-30T08:34:52;98117.47;;;19.68;100.00
55604;BME280;41468;48.838;9.330;2023-07-30T08:37:19;98116.75;;;19.80;100.00
55604;BME280;41468;48.838;9.330;2023-07-30T08:39:46;98108.09;;;19.94;100.00
55604;BME280;41468;48.838;9.330;2023-07-30T08:42:15;98106.06;;;20.11;100.00
55604;BME280;41468;48.838;9.330;2023-07-30T08:44:42;98107.25;;;20.26;100.00
55604;BME280;41468;48.838;9.330;2023-07-30T08:47:10;98111.22;;;20.25;100.00
55604;BME280;41468;48.838;9.330;2023-07-30T08:49:37;98118.56;;;20.32;100.00
55604;BME280;41468;48.838;9.330;2023-07-30T08:52:04;98113.16;;;20.41;100.00
55604;BME280;41468;48.838;9.330;2023-07-30T08:54:36;98109.81;;;20.34;100.00
55604;BME280;41468;48.838;9.330;2023-07-30T08:57:08;98108.16;;;20.36;100.00
55604;BME280;41468;48.838;9.330;2023-07-30T08:59:42;98115.94;;;20.41;100.00
55604;BME280;41468;48.838;9.330;2023-07-30T09:02:18;98116.97;;;20.47;100.00
55604;BME280;41468;48.838;9.330;2023-07-30T09:04:53;98120.19;;;20.46;100.00
55604;BME280;41468;48.838;9.330;2023-07-30T09:07:24;98122.72;;;20.40;100.00
55604;BME280;41468;48.838;9.330;2023-07-30T09:09:51;98129.31;;;20.30;100.00
55604;BME280;41468;48.838;9.330;2023-07-30T09:12:17;98126.38;;;20.37;100.00
55604;BME280;41468;48.838;9.330;2023-07-30T09:14:51;98129.91;;;20.38;100.00
55604;BME280;41468;48.838;9.330;2023-07-30T09:17:18;98128.66;;;20.55;100.00
55604;BME280;41468;48.838;9.330;2023-07-30T09:19:45;98120.47;;;20.64;100.00
55604;BME280;41468;48.838;9.330;2023-07-30T09:22:26;98124.72;;;20.82;100.00
55604;BME280;41468;48.838;9.330;2023-07-30T09:24:55;98128.94;;;20.73;100.00
55604;BME280;41468;48.838;9.330;2023-07-30T09:27:23;98130.81;;;20.64;100.00
55604;BME280;41468;48.838;9.330;2023-07-30T09:29:54;98130.69;;;20.67;100.00
55604;BME280;41468;48.838;9.330;2023-07-30T09:32:29;98131.69;;;20.44;100.00
55604;BME280;41468;48.838;9.330;2023-07-30T09:35:08;98144.00;;;20.43;100.00
55604;BME280;41468;48.838;9.330;2023-07-30T09:37:40;98143.66;;;20.41;100.00
55604;BME280;41468;48.838;9.330;2023-07-30T09:40:09;98145.47;;;20.48;100.00
55604;BME280;41468;48.838;9.330;2023-07-30T09:42:36;98140.44;;;20.59;100.00
55604;BME280;41468;48.838;9.330;2023-07-30T09:45:07;98138.25;;;20.67;100.00
55604;BME280;41468;48.838;9.330;2023-07-30T09:47:37;98140.25;;;20.66;100.00
55604;BME280;41468;48.838;9.330;2023-07-30T09:50:09;98148.41;;;20.57;100.00
55604;BME280;41468;48.838;9.330;2023-07-30T09:52:36;98156.88;;;20.37;100.00
55604;BME280;41468;48.838;9.330;2023-07-30T09:55:06;98158.16;;;20.33;100.00
55604;BME280;41468;48.838;9.330;2023-07-30T09:57:33;98158.19;;;20.16;98.44
55604;BME280;41468;48.838;9.330;2023-07-30T10:00:01;98157.56;;;20.25;98.77
55604;BME280;41468;48.838;9.330;2023-07-30T10:02:30;98165.25;;;20.04;95.29
55604;BME280;41468;48.838;9.330;2023-07-30T10:05:03;98162.13;;;20.02;93.96
55604;BME280;41468;48.838;9.330;2023-07-30T10:07:34;98165.25;;;19.88;93.10
55604;BME280;41468;48.838;9.330;2023-07-30T10:10:02;98169.84;;;19.95;95.75
55604;BME280;41468;48.838;9.330;2023-07-30T10:12:32;98171.81;;;19.94;95.29
55604;BME280;41468;48.838;9.330;2023-07-30T10:15:01;98177.16;;;20.01;97.17
55604;BME280;41468;48.838;9.330;2023-07-30T10:17:39;98171.91;;;20.07;96.64
55604;BME280;41468;48.838;9.330;2023-07-30T10:20:25;98175.31;;;20.27;94.19
55604;BME280;41468;48.838;9.330;2023-07-30T10:22:54;98175.50;;;20.37;94.24
55604;BME280;41468;48.838;9.330;2023-07-30T10:25:26;98176.25;;;20.54;91.08
55604;BME280;41468;48.838;9.330;2023-07-30T10:27:53;98178.50;;;20.59;87.70
55604;BME280;41468;48.838;9.330;2023-07-30T10:30:20;98173.19;;;20.64;84.93
55604;BME280;41468;48.838;9.330;2023-07-30T10:35:44;98173.91;;;21.61;80.07
55604;BME280;41468;48.838;9.330;2023-07-30T10:38:34;98182.31;;;21.96;79.11
55604;BME280;41468;48.838;9.330;2023-07-30T10:43:35;98169.41;;;22.02;69.81
55604;BME280;41468;48.838;9.330;2023-07-30T10:46:03;98174.94;;;22.15;73.11
55604;BME280;41468;48.838;9.330;2023-07-30T10:48:34;98167.69;;;22.31;69.95
55604;BME280;41468;48.838;9.330;2023-07-30T10:51:02;98165.94;;;22.11;73.72
55604;BME280;41468;48.838;9.330;2023-07-30T10:53:29;98167.28;;;22.19;72.42
55604;BME280;41468;48.838;9.330;2023-07-30T10:56:00;98167.13;;;22.36;71.45
55604;BME280;41468;48.838;9.330;2023-07-30T10:58:30;98168.69;;;22.59;67.43
55604;BME280;41468;48.838;9.330;2023-07-30T11:00:57;98172.72;;;22.80;66.47
55604;BME280;41468;48.838;9.330;2023-07-30T11:03:25;98172.13;;;23.07;67.40
55604;BME280;41468;48.838;9.330;2023-07-30T11:05:54;98165.75;;;23.28;65.58
55604;BME280;41468;48.838;9.330;2023-07-30T11:08:35;98172.94;;;23.48;67.70
55604;BME280;41468;48.838;9.330;2023-07-30T11:11:03;98176.63;;;23.35;63.66
55604;BME280;41468;48.838;9.330;2023-07-30T11:13:38;98177.75;;;23.47;65.95
55604;BME280;41468;48.838;9.330;2023-07-30T11:16:06;98181.78;;;23.46;65.58
55604;BME280;41468;48.838;9.330;2023-07-30T11:18:37;98183.63;;;23.40;63.99
55604;BME280;41468;48.838;9.330;2023-07-30T11:21:11;98185.22;;;23.19;64.84
55604;BME280;41468;48.838;9.330;2023-07-30T11:23:40;98195.09;;;23.20;65.59
55604;BME280;41468;48.838;9.330;2023-07-30T11:26:12;98186.47;;;22.83;64.17
55604;BME280;41468;48.838;9.330;2023-07-30T11:28:40;98195.41;;;22.56;67.67
55604;BME280;41468;48.838;9.330;2023-07-30T11:31:07;98203.44;;;22.06;70.02
55604;BME280;41468;48.838;9.330;2023-07-30T11:33:36;98204.47;;;21.74;71.34
55604;BME280;41468;48.838;9.330;2023-07-30T11:36:03;98214.31;;;21.37;68.73
55604;BME280;41468;48.838;9.330;2023-07-30T11:38:31;98206.78;;;21.37;69.87
55604;BME280;41468;48.838;9.330;2023-07-30T11:40:59;98219.69;;;21.44;71.02
55604;BME280;41468;48.838;9.330;2023-07-30T11:43:26;98211.13;;;21.64;68.02
55604;BME280;41468;48.838;9.330;2023-07-30T11:46:13;98214.69;;;21.77;67.98
55604;BME280;41468;48.838;9.330;2023-07-30T11:48:53;98207.97;;;22.26;68.59
55604;BME280;41468;48.838;9.330;2023-07-30T11:51:36;98200.97;;;22.78;67.84
55604;BME280;41468;48.838;9.330;2023-07-30T11:54:03;98208.81;;;23.05;64.41
55604;BME280;41468;48.838;9.330;2023-07-30T11:56:31;98203.66;;;23.26;64.14
55604;BME280;41468;48.838;9.330;2023-07-30T11:59:05;98203.56;;;23.38;64.42
55604;BME280;41468;48.838;9.330;2023-07-30T12:01:34;98218.22;;;23.30;63.98
55604;BME280;41468;48.838;9.330;2023-07-30T12:04:06;98219.38;;;23.42;63.58
55604;BME280;41468;48.838;9.330;2023-07-30T12:06:43;98220.78;;;23.46;62.96
55604;BME280;41468;48.838;9.330;2023-07-30T12:09:16;98219.84;;;23.71;63.97
55604;BME280;41468;48.838;9.330;2023-07-30T12:11:56;98211.81;;;23.83;63.75
55604;BME280;41468;48.838;9.330;2023-07-30T12:15:09;98220.19;;;23.83;61.68
55604;BME280;41468;48.838;9.330;2023-07-30T12:17:29;98218.81;;;23.87;61.84
55604;BME280;41468;48.838;9.330;2023-07-30T12:20:00;98205.72;;;24.15;62.32
55604;BME280;41468;48.838;9.330;2023-07-30T12:22:27;98212.34;;;24.09;61.68
55604;BME280;41468;48.838;9.330;2023-07-30T12:24:53;98220.84;;;23.96;59.64
55604;BME280;41468;48.838;9.330;2023-07-30T12:27:20;98206.00;;;24.08;61.13
55604;BME280;41468;48.838;9.330;2023-07-30T12:29:47;98201.06;;;24.21;61.77
55604;BME280;41468;48.838;9.330;2023-07-30T12:32:14;98202.66;;;24.32;60.35
55604;BME280;41468;48.838;9.330;2023-07-30T12:34:41;98209.88;;;24.11;58.71
55604;BME280;41468;48.838;9.330;2023-07-30T12:37:07;98206.31;;;24.10;60.69
55604;BME280;41468;48.838;9.330;2023-07-30T12:39:36;98205.72;;;24.15;58.75
55604;BME280;41468;48.838;9.330;2023-07-30T12:42:03;98201.09;;;24.40;60.14
55604;BME280;41468;48.838;9.330;2023-07-30T12:44:29;98215.66;;;24.35;58.62
55604;BME280;41468;48.838;9.330;2023-07-30T12:46:56;98218.44;;;24.25;59.68
55604;BME280;41468;48.838;9.330;2023-07-30T12:49:23;98223.06;;;24.10;60.41
55604;BME280;41468;48.838;9.330;2023-07-30T12:51:50;98216.25;;;24.20;59.91
55604;BME280;41468;48.838;9.330;2023-07-30T12:54:16;98217.88;;;24.49;61.04
55604;BME280;41468;48.838;9.330;2023-07-30T12:56:43;98211.69;;;24.73;60.65
55604;BME280;41468;48.838;9.330;2023-07-30T12:59:10;98220.38;;;24.56;57.47
55604;BME280;41468;48.838;9.330;2023-07-30T13:01:37;98219.59;;;24.56;56.71
55604;BME280;41468;48.838;9.330;2023-07-30T13:04:07;98218.78;;;24.37;58.17
55604;BME280;41468;48.838;9.330;2023-07-30T13:06:34;98225.56;;;24.36;58.11
55604;BME280;41468;48.838;9.330;2023-07-30T13:09:00;98227.97;;;24.56;57.07
55604;BME280;41468;48.838;9.330;2023-07-30T13:11:27;98228.25;;;24.58;56.87
55604;BME280;41468;48.838;9.330;2023-07-30T13:13:54;98234.19;;;24.69;56.42
55604;BME280;41468;48.838;9.330;2023-07-30T13:16:29;98225.91;;;24.47;55.84
55604;BME280;41468;48.838;9.330;2023-07-30T13:18:58;98233.69;;;24.52;56.06
55604;BME280;41468;48.838;9.330;2023-07-30T13:21:25;98236.16;;;24.50;56.01
55604;BME280;41468;48.838;9.330;2023-07-30T13:23:52;98237.66;;;24.42;54.81
55604;BME280;41468;48.838;9.330;2023-07-30T13:26:19;98237.38;;;24.40;55.66
55604;BME280;41468;48.838;9.330;2023-07-30T13:28:46;98236.41;;;24.34;55.33
55604;BME280;41468;48.838;9.330;2023-07-30T13:31:13;98230.06;;;24.33;56.03
55604;BME280;41468;48.838;9.330;2023-07-30T13:33:40;98231.84;;;24.67;54.76
55604;BME280;41468;48.838;9.330;2023-07-30T13:36:07;98221.28;;;24.53;55.50
55604;BME280;41468;48.838;9.330;2023-07-30T13:38:35;98240.81;;;24.44;55.97
55604;BME280;41468;48.838;9.330;2023-07-30T13:41:01;98243.47;;;24.07;55.99
55604;BME280;41468;48.838;9.330;2023-07-30T13:43:28;98240.69;;;23.67;57.10